createdAt,value
2023-07-20T00:02:27.458Z,99798.28
2023-07-20T00:07:31.824Z,99813.41
2023-07-20T00:12:34.868Z,99816.25
2023-07-20T00:17:38.439Z,99810.34
2023-07-20T00:22:42.685Z,99819.53
2023-07-20T00:27:45.545Z,99819.31
2023-07-20T00:32:48.572Z,99806.66
2023-07-20T00:37:54.382Z,99809.31
2023-07-20T00:42:57.671Z,99808.72
2023-07-20T00:48:01.039Z,99815.66
2023-07-20T00:53:07.104Z,99807.28
2023-07-20T00:58:10.229Z,99805.44
2023-07-20T01:03:13.056Z,99797.91
2023-07-20T01:08:21.013Z,99806.28
2023-07-20T01:13:24.359Z,99803.41
2023-07-20T01:18:29.188Z,99793.63
2023-07-20T01:24:00.317Z,99794.84
2023-07-20T01:29:25.235Z,99795.84
2023-07-20T01:34:29.976Z,99784.22
2023-07-20T01:39:33.735Z,99785.88
2023-07-20T01:44:36.508Z,99781.16
2023-07-20T01:49:40.708Z,99782.16
2023-07-20T01:54:43.680Z,99790.13
2023-07-20T01:59:46.465Z,99793.00
2023-07-20T02:04:50.695Z,99797.91
2023-07-20T02:09:54.070Z,99794.00
2023-07-20T02:14:56.914Z,99801.13
2023-07-20T02:20:01.022Z,99809.06
2023-07-20T02:25:03.776Z,99815.19
2023-07-20T02:30:07.860Z,99814.78
2023-07-20T02:35:12.136Z,99811.66
2023-07-20T02:40:15.927Z,99815.50
2023-07-20T02:45:19.182Z,99819.00
2023-07-20T02:50:24.276Z,99820.06
2023-07-20T02:55:27.415Z,99830.50
2023-07-20T03:00:30.195Z,99824.19
2023-07-20T03:05:34.479Z,99822.94
2023-07-20T03:10:41.288Z,99830.06
2023-07-20T03:15:44.085Z,99826.13
2023-07-20T03:20:49.775Z,99835.13
2023-07-20T03:25:55.833Z,99833.66
2023-07-20T03:30:59.961Z,99827.56
2023-07-20T03:36:06.213Z,99844.78
2023-07-20T03:41:09.076Z,99838.03
2023-07-20T03:46:12.123Z,99838.72
2023-07-20T03:51:16.768Z,99844.22
2023-07-20T03:56:19.673Z,99854.44
2023-07-20T04:01:22.663Z,99857.53
2023-07-20T04:06:26.855Z,99866.31
2023-07-20T04:11:29.643Z,99859.53
2023-07-20T04:16:33.781Z,99868.91
2023-07-20T04:21:41.845Z,99879.91
2023-07-20T04:26:44.842Z,99881.69
2023-07-20T04:31:47.862Z,99880.03
2023-07-20T04:36:51.985Z,99870.47
2023-07-20T04:41:55.266Z,99860.31
2023-07-20T04:46:58.216Z,99857.91
2023-07-20T04:52:03.721Z,99867.28
2023-07-20T04:57:13.740Z,99868.81
2023-07-20T05:02:21.666Z,99874.75
2023-07-20T05:07:25.944Z,99880.53
2023-07-20T05:12:28.749Z,99881.56
2023-07-20T05:17:31.621Z,99891.16
2023-07-20T05:22:36.238Z,99875.25
2023-07-20T05:27:39.967Z,99876.91
2023-07-20T05:32:42.843Z,99885.03
2023-07-20T05:37:47.319Z,99889.91
2023-07-20T05:42:53.126Z,99888.06
2023-07-20T05:47:56.189Z,99892.19
2023-07-20T05:53:00.372Z,99893.22
2023-07-20T05:58:03.117Z,99903.25
2023-07-20T06:03:05.941Z,99908.16
2023-07-20T06:08:10.162Z,99900.41
2023-07-20T06:13:13.082Z,99898.16
2023-07-20T06:18:16.367Z,99901.91
2023-07-20T06:23:20.617Z,99904.72
2023-07-20T06:28:23.408Z,99906.56
2023-07-20T06:33:26.188Z,99911.25
2023-07-20T06:38:32.201Z,99898.38
2023-07-20T06:53:48.886Z,99899.34
2023-07-20T06:58:51.736Z,99906.47
2023-07-20T07:03:56.159Z,99907.75
2023-07-20T07:09:00.760Z,99902.75
2023-07-20T07:14:03.598Z,99899.38
2023-07-20T07:19:06.763Z,99898.94
2023-07-20T07:24:11.082Z,99888.13
2023-07-20T07:29:14.055Z,99890.47
2023-07-20T07:34:16.893Z,99895.09
2023-07-20T07:44:26.824Z,99904.47
2023-07-20T07:49:30.228Z,99907.53
2023-07-20T07:54:34.422Z,99907.69
2023-07-20T07:59:38.851Z,99910.09
2023-07-20T08:04:41.711Z,99912.47
2023-07-20T08:09:46.559Z,99919.28
2023-07-20T08:14:49.792Z,99924.19
2023-07-20T08:19:52.608Z,99922.22
2023-07-20T08:24:56.913Z,99923.63
2023-07-20T08:30:00.669Z,99921.00
2023-07-20T08:35:03.691Z,99936.28
2023-07-20T08:40:10.376Z,99918.28
2023-07-20T08:45:15.515Z,99928.22
2023-07-20T08:50:18.691Z,99941.47
2023-07-20T08:55:23.380Z,99932.69
2023-07-20T09:00:27.786Z,99939.84
2023-07-20T09:05:33.864Z,99932.09
2023-07-20T09:10:39.064Z,99932.00
2023-07-20T09:15:48.084Z,99925.25
2023-07-20T09:20:51.069Z,99927.78
2023-07-20T09:25:56.755Z,99916.69
2023-07-20T09:30:59.784Z,99924.59
2023-07-20T09:36:19.262Z,99921.06
2023-07-20T09:51:49.513Z,99922.94
2023-07-20T09:56:54.578Z,99924.28
2023-07-20T10:02:00.873Z,99928.59
2023-07-20T10:07:07.553Z,99934.00
2023-07-20T10:12:17.340Z,99953.88
2023-07-20T10:17:21.082Z,99959.50
2023-07-20T10:22:27.846Z,99969.06
2023-07-20T10:27:32.720Z,99968.84
2023-07-20T10:32:35.930Z,99969.72
2023-07-20T10:37:52.568Z,99962.56
2023-07-20T10:43:03.364Z,99955.47
2023-07-20T10:48:07.853Z,99961.50
2023-07-20T10:53:18.760Z,99964.41
2023-07-20T10:58:27.546Z,99969.38
2023-07-20T11:03:34.740Z,99949.00
2023-07-20T11:08:42.870Z,99952.69
2023-07-20T11:13:58.278Z,99963.53
2023-07-20T11:19:01.603Z,99962.72
2023-07-20T11:24:06.371Z,99958.50
2023-07-20T11:29:21.035Z,99967.75
2023-07-20T11:34:34.383Z,99959.47
2023-07-20T11:39:37.521Z,99970.75
2023-07-20T11:44:41.889Z,99957.97
2023-07-20T11:49:50.715Z,99963.53
2023-07-20T11:54:54.903Z,99963.69
2023-07-20T12:00:03.098Z,99978.06
2023-07-20T12:05:09.555Z,99983.50
2023-07-20T12:10:14.144Z,99980.06
2023-07-20T12:15:21.585Z,99986.97
2023-07-20T12:20:28.732Z,99983.72
2023-07-20T12:25:41.268Z,99986.75
2023-07-20T12:30:47.268Z,99978.44
2023-07-20T12:35:50.463Z,99977.41
2023-07-20T12:40:53.368Z,99982.81
2023-07-20T12:45:58.407Z,99972.16
2023-07-20T12:51:01.351Z,99973.47
2023-07-20T12:57:12.837Z,99966.41
2023-07-20T13:01:28.718Z,99964.09
2023-07-20T13:06:31.761Z,99954.16
2023-07-20T13:11:34.610Z,99970.94
2023-07-20T13:16:38.921Z,99962.63
2023-07-20T13:21:42.069Z,99959.75
2023-07-20T13:26:44.952Z,99955.34
2023-07-20T13:31:51.635Z,99955.19
2023-07-20T13:36:54.917Z,99944.81
2023-07-20T13:41:57.730Z,99948.97
2023-07-20T13:57:16.296Z,99926.50
2023-07-20T14:07:30.281Z,99951.72
2023-07-20T14:12:33.435Z,99947.69
2023-07-20T14:17:38.714Z,99939.25
2023-07-20T14:22:42.926Z,99953.22
2023-07-20T14:27:45.881Z,99940.84
2023-07-20T14:32:50.813Z,99928.13
2023-07-20T14:37:53.868Z,99938.09
2023-07-20T14:42:57.565Z,99936.38
2023-07-20T14:48:01.848Z,99919.25
2023-07-20T14:53:06.932Z,99922.88
2023-07-20T14:58:10.078Z,99914.31
2023-07-20T15:03:14.390Z,99902.38
2023-07-20T15:08:17.405Z,99914.78
2023-07-20T15:13:20.157Z,99905.38
2023-07-20T15:18:37.467Z,99884.59
2023-07-20T15:23:44.723Z,99882.94
2023-07-20T15:28:47.837Z,99881.03
2023-07-20T15:33:53.854Z,99890.16
2023-07-20T15:38:56.696Z,99892.28
2023-07-20T15:43:59.448Z,99881.16
2023-07-20T15:49:04.647Z,99873.47
2023-07-20T15:54:08.535Z,99872.03
2023-07-20T15:59:12.579Z,99868.88
2023-07-20T16:04:16.817Z,99867.28
2023-07-20T16:09:19.628Z,99874.47
2023-07-20T16:14:22.580Z,99866.38
2023-07-20T16:19:29.587Z,99858.38
2023-07-20T16:24:32.626Z,99865.97
2023-07-20T16:29:35.512Z,99864.84
2023-07-20T16:39:47.897Z,99862.34
2023-07-20T16:44:52.018Z,99862.78
2023-07-20T16:49:56.435Z,99861.50
2023-07-20T16:54:59.404Z,99857.06
2023-07-20T17:00:02.926Z,99855.44
2023-07-20T17:05:10.810Z,99859.53
2023-07-20T17:10:13.878Z,99862.56
2023-07-20T17:15:17.318Z,99862.81
2023-07-20T17:25:32.126Z,99856.53
2023-07-20T17:30:35.534Z,99845.84
2023-07-20T17:35:39.705Z,99837.38
2023-07-20T17:40:43.665Z,99848.16
2023-07-20T17:45:50.345Z,99846.81
2023-07-20T17:50:56.206Z,99847.63
2023-07-20T17:55:59.055Z,99842.28
2023-07-20T18:01:02.069Z,99836.16
2023-07-20T18:06:09.989Z,99844.91
2023-07-20T18:11:12.758Z,99834.75
2023-07-20T18:16:15.714Z,99833.09
2023-07-20T18:21:19.932Z,99837.06
2023-07-20T18:26:22.828Z,99839.06
2023-07-20T18:31:25.997Z,99838.50
2023-07-20T18:36:30.430Z,99835.56
2023-07-20T18:41:33.256Z,99839.41
2023-07-20T18:46:36.307Z,99844.28
2023-07-20T18:51:40.551Z,99852.22
2023-07-20T18:56:43.540Z,99850.72
2023-07-20T19:01:48.541Z,99857.59
2023-07-20T19:06:53.056Z,99849.09
2023-07-20T19:11:55.965Z,99853.66
2023-07-20T19:16:58.840Z,99851.88
2023-07-20T19:22:02.957Z,99858.38
2023-07-20T19:27:05.977Z,99865.94
2023-07-20T19:32:09.443Z,99882.63
2023-07-20T19:37:13.820Z,99878.44
2023-07-20T19:42:16.761Z,99880.63
2023-07-20T19:47:19.755Z,99887.25
2023-07-20T19:52:23.943Z,99889.81
2023-07-20T20:07:39.653Z,99896.66
2023-07-20T20:12:42.476Z,99912.63
2023-07-20T20:17:45.381Z,99904.91
2023-07-20T20:22:49.661Z,99914.53
2023-07-20T20:27:52.570Z,99916.00
2023-07-20T20:32:55.524Z,99907.41
2023-07-20T20:37:59.756Z,99908.84
2023-07-20T20:43:02.561Z,99917.22
2023-07-20T20:48:08.422Z,99922.28
2023-07-20T20:53:13.562Z,99923.28
2023-07-20T20:58:16.569Z,99925.31
2023-07-20T21:03:19.309Z,99930.84
2023-07-20T21:08:24.640Z,99935.91
2023-07-20T21:13:27.770Z,99926.47
2023-07-20T21:18:30.822Z,99929.56
2023-07-20T21:23:38.083Z,99932.00
2023-07-20T21:28:40.871Z,99929.94
2023-07-20T21:33:43.707Z,99929.50
2023-07-20T21:38:47.902Z,99927.00
2023-07-20T21:43:50.642Z,99932.47
2023-07-20T21:48:53.504Z,99927.78
2023-07-20T21:53:57.644Z,99935.13
2023-07-20T21:59:00.388Z,99933.63
2023-07-20T22:04:03.523Z,99940.56
2023-07-20T22:09:07.880Z,99929.91
2023-07-20T22:14:10.939Z,99940.28
2023-07-20T22:19:13.892Z,99932.88
2023-07-20T22:24:18.347Z,99927.13
2023-07-20T22:29:21.141Z,99929.63
2023-07-20T22:34:24.038Z,99934.06
2023-07-20T22:39:28.616Z,99933.44
2023-07-20T22:44:31.703Z,99936.72
2023-07-20T22:49:34.956Z,99931.81
2023-07-20T22:54:39.318Z,99934.81
2023-07-20T22:59:42.131Z,99933.13
2023-07-20T23:04:45.363Z,99931.53
2023-07-20T23:09:51.197Z,99919.13
2023-07-20T23:14:53.909Z,99925.63
2023-07-20T23:19:57.187Z,99927.22
2023-07-20T23:25:01.761Z,99924.91
2023-07-20T23:30:04.922Z,99916.53
2023-07-20T23:35:09.418Z,99917.53
2023-07-20T23:40:15.661Z,99905.88
2023-07-20T23:45:19.408Z,99913.41
2023-07-20T23:50:22.292Z,99908.88
2023-07-20T23:55:29.365Z,99906.78
